Academy, New Jersey
Current Conditions -  °F | °C
As of 10:51 PM on Sunday 25 Jan 2015 (Local Time) from KEWR Reporting Station
Overcast Overcast  
Wind Chill: 19°   Ceiling: 4700
Heat Index: 30°   Visibility: 10mi
Dew Point: 12°   Wind: 15mph
Humidity: 47%   Direction: 360°N
Pressure: 29.98"   Gusts: NA
Location:  40.7334°N, 74.1735°W
Report Text: KEWR 260351Z 36013KT 10SM BKN047 BKN070 OVC140 M01/M11 A2998 RMK AO2 SLP151 T10111111 $
Loading
Personal Weather Stations






























Interactive Weather Map New forecast layout! Learn more

10-Day Weather Forecast

Advertisements
Track Severe Weather on mobile